createdAt,value
2023-01-29T00:01:28.736Z,5.97
2023-01-29T00:03:56.559Z,4.83
2023-01-29T00:06:24.288Z,5.50
2023-01-29T00:08:52.074Z,5.20
2023-01-29T00:11:20.307Z,5.68
2023-01-29T00:13:48.249Z,6.18
2023-01-29T00:16:15.990Z,6.63
2023-01-29T00:18:45.488Z,5.47
2023-01-29T00:21:14.231Z,5.53
2023-01-29T00:23:42.544Z,5.63
2023-01-29T00:26:10.654Z,5.90
2023-01-29T00:28:38.667Z,5.90
2023-01-29T00:31:10.261Z,6.63
2023-01-29T00:33:38.136Z,5.77
2023-01-29T00:36:09.732Z,5.70
2023-01-29T00:38:38.481Z,6.87
2023-01-29T00:41:25.379Z,6.20
2023-01-29T00:44:10.638Z,5.70
2023-01-29T00:46:38.429Z,6.63
2023-01-29T00:49:06.862Z,7.43
2023-01-29T00:51:36.629Z,6.43
2023-01-29T00:54:06.855Z,5.73
2023-01-29T00:56:36.588Z,6.05
2023-01-29T00:59:04.725Z,5.53
2023-01-29T01:02:01.654Z,6.70
2023-01-29T01:04:29.459Z,7.18
2023-01-29T01:06:58.612Z,6.60
2023-01-29T01:09:44.219Z,7.20
2023-01-29T01:12:11.975Z,6.83
2023-01-29T01:14:43.028Z,7.47
2023-01-29T01:17:11.020Z,7.27
2023-01-29T01:19:38.824Z,7.93
2023-01-29T01:22:07.953Z,7.20
2023-01-29T01:24:35.760Z,7.93
2023-01-29T01:27:03.601Z,7.13
2023-01-29T01:29:31.453Z,8.50
2023-01-29T01:31:59.759Z,7.60
2023-01-29T01:34:28.034Z,7.72
2023-01-29T01:36:56.346Z,8.83
2023-01-29T01:39:26.061Z,7.90
2023-01-29T01:41:54.690Z,8.52
2023-01-29T01:44:54.908Z,8.57
2023-01-29T01:47:30.199Z,7.27
2023-01-29T01:50:02.939Z,7.10
2023-01-29T01:52:32.748Z,8.50
2023-01-29T01:55:02.238Z,8.20
2023-01-29T01:57:32.665Z,8.80
2023-01-29T02:00:11.089Z,8.33
2023-01-29T02:02:58.078Z,7.70
2023-01-29T02:05:44.467Z,8.87
2023-01-29T02:08:31.010Z,8.57
2023-01-29T02:11:01.494Z,8.23
2023-01-29T02:13:29.367Z,7.90
2023-01-29T02:15:57.096Z,8.40
2023-01-29T02:18:24.975Z,8.03
2023-01-29T02:21:11.885Z,8.50
2023-01-29T02:24:36.289Z,7.53
2023-01-29T02:27:10.054Z,7.57
2023-01-29T02:29:49.650Z,7.93
2023-01-29T02:32:24.310Z,8.10
2023-01-29T02:35:25.597Z,7.80
2023-01-29T02:38:00.346Z,8.43
2023-01-29T02:40:32.588Z,7.40
2023-01-29T02:43:08.892Z,8.70
2023-01-29T02:45:46.462Z,8.73
2023-01-29T02:48:18.886Z,8.20
2023-01-29T02:50:54.302Z,9.30
2023-01-29T02:53:28.615Z,7.67
2023-01-29T02:56:01.227Z,8.83
2023-01-29T02:58:32.324Z,8.43
2023-01-29T03:01:07.745Z,8.00
2023-01-29T03:03:39.543Z,8.03
2023-01-29T03:06:12.109Z,12.63
2023-01-29T03:08:51.817Z,8.37
2023-01-29T03:11:19.735Z,9.17
2023-01-29T03:13:51.815Z,8.97
2023-01-29T03:16:25.929Z,8.37
2023-01-29T03:19:01.303Z,8.93
2023-01-29T03:21:55.098Z,9.30
2023-01-29T03:24:51.845Z,8.43
2023-01-29T03:27:40.938Z,8.53
2023-01-29T03:30:29.642Z,8.33
2023-01-29T03:33:02.054Z,9.07
2023-01-29T03:35:36.479Z,8.53
2023-01-29T03:38:05.451Z,8.27
2023-01-29T03:40:39.097Z,9.77
2023-01-29T03:43:13.423Z,8.50
2023-01-29T03:45:51.499Z,9.27
2023-01-29T03:48:31.758Z,9.57
2023-01-29T03:51:07.654Z,9.07
2023-01-29T03:53:44.299Z,8.97
2023-01-29T03:56:38.341Z,7.47
2023-01-29T03:59:15.822Z,8.90
2023-01-29T04:01:48.684Z,8.73
2023-01-29T04:04:23.719Z,9.23
2023-01-29T04:06:54.046Z,8.67
2023-01-29T04:09:26.410Z,9.23
2023-01-29T04:12:00.595Z,9.30
2023-01-29T04:14:28.625Z,9.03
2023-01-29T04:17:01.203Z,8.73
2023-01-29T04:19:30.446Z,9.67
2023-01-29T04:22:04.987Z,9.50
2023-01-29T04:24:33.570Z,9.17
2023-01-29T04:27:13.486Z,9.37
2023-01-29T04:29:52.640Z,9.80
2023-01-29T04:32:29.528Z,8.83
2023-01-29T04:35:16.032Z,9.87
2023-01-29T04:37:51.963Z,10.57
2023-01-29T04:40:26.645Z,9.17
2023-01-29T04:43:05.139Z,9.67
2023-01-29T04:45:46.163Z,8.57
2023-01-29T04:48:20.768Z,9.87
2023-01-29T04:51:00.593Z,10.17
2023-01-29T04:53:38.159Z,10.10
2023-01-29T04:56:11.115Z,9.97
2023-01-29T04:58:42.929Z,9.93
2023-01-29T05:01:15.493Z,10.13
2023-01-29T05:03:47.866Z,9.30
2023-01-29T05:06:19.284Z,9.53
2023-01-29T05:08:48.851Z,10.40
2023-01-29T05:11:17.538Z,10.47
2023-01-29T05:13:45.588Z,9.97
2023-01-29T05:16:17.725Z,9.90
2023-01-29T05:18:45.601Z,10.83
2023-01-29T05:21:13.679Z,10.37
2023-01-29T05:23:53.010Z,10.73
2023-01-29T05:26:39.163Z,10.10
2023-01-29T05:29:06.980Z,10.57
2023-01-29T05:31:34.686Z,11.73
2023-01-29T05:34:02.486Z,11.40
2023-01-29T05:36:30.636Z,11.80
2023-01-29T05:38:59.841Z,10.63
2023-01-29T05:41:27.600Z,12.20
2023-01-29T05:43:55.452Z,11.17
2023-01-29T05:46:23.277Z,13.07
2023-01-29T05:48:53.524Z,12.03
2023-01-29T05:51:21.354Z,11.87
2023-01-29T05:53:49.147Z,12.13
2023-01-29T05:56:18.220Z,12.33
2023-01-29T05:58:46.080Z,11.77
2023-01-29T06:01:16.738Z,11.47
2023-01-29T06:03:44.990Z,11.35
2023-01-29T06:06:13.471Z,11.67
2023-01-29T06:08:41.819Z,10.80
2023-01-29T06:11:11.236Z,12.73
2023-01-29T06:13:40.564Z,11.80
2023-01-29T06:16:09.758Z,12.93
2023-01-29T06:18:38.546Z,13.17
2023-01-29T06:21:08.393Z,13.00
2023-01-29T06:23:36.152Z,12.37
2023-01-29T06:26:05.035Z,11.93
2023-01-29T06:28:32.865Z,12.30
2023-01-29T06:31:22.108Z,12.93
2023-01-29T06:33:51.262Z,11.83
2023-01-29T06:36:19.038Z,12.93
2023-01-29T06:38:47.171Z,12.73
2023-01-29T06:41:19.136Z,16.93
2023-01-29T06:43:47.858Z,12.90
2023-01-29T06:46:16.919Z,12.50
2023-01-29T06:48:44.940Z,13.33
2023-01-29T06:51:13.197Z,13.60
2023-01-29T06:53:41.150Z,13.13
2023-01-29T06:56:09.980Z,12.90
2023-01-29T06:58:39.060Z,12.90
2023-01-29T07:01:07.583Z,13.47
2023-01-29T07:03:37.312Z,13.70
2023-01-29T07:06:06.923Z,13.83
2023-01-29T07:08:37.764Z,13.57
2023-01-29T07:11:06.087Z,12.73
2023-01-29T07:13:33.902Z,13.27
2023-01-29T07:16:02.400Z,14.07
2023-01-29T07:18:30.954Z,14.30
2023-01-29T07:21:01.689Z,14.33
2023-01-29T07:23:29.453Z,13.43
2023-01-29T07:25:57.120Z,13.77
2023-01-29T07:28:25.076Z,13.77
2023-01-29T07:30:57.601Z,12.73
2023-01-29T07:33:25.591Z,14.83
2023-01-29T07:35:53.870Z,12.33
2023-01-29T07:38:23.639Z,13.43
2023-01-29T07:40:52.967Z,14.63
2023-01-29T07:43:20.796Z,15.00
2023-01-29T07:45:48.551Z,14.87
2023-01-29T07:48:16.292Z,13.47
2023-01-29T07:50:44.344Z,14.73
2023-01-29T07:53:15.824Z,15.43
2023-01-29T07:55:46.483Z,14.60
2023-01-29T07:58:14.223Z,15.20
2023-01-29T08:00:42.050Z,16.10
2023-01-29T08:03:13.060Z,15.00
2023-01-29T08:05:40.877Z,13.90
2023-01-29T08:08:10.998Z,13.57
2023-01-29T08:10:40.227Z,14.77
2023-01-29T08:13:10.255Z,15.77
2023-01-29T08:15:39.356Z,15.40
2023-01-29T08:18:07.625Z,15.30
2023-01-29T08:20:35.359Z,15.03
2023-01-29T08:23:05.082Z,15.83
2023-01-29T08:25:33.665Z,15.13
2023-01-29T08:28:02.374Z,14.77
2023-01-29T08:30:33.831Z,14.97
2023-01-29T08:33:02.017Z,13.17
2023-01-29T08:35:29.768Z,15.00
2023-01-29T08:37:59.316Z,15.40
2023-01-29T08:40:28.592Z,15.87
2023-01-29T08:43:02.081Z,14.00
2023-01-29T08:45:33.053Z,14.50
2023-01-29T08:48:00.791Z,15.47
2023-01-29T08:50:30.457Z,13.00
2023-01-29T08:52:59.490Z,14.30
2023-01-29T08:55:27.454Z,14.50
2023-01-29T08:57:57.242Z,13.80
2023-01-29T09:00:25.355Z,14.10
2023-01-29T09:02:57.296Z,15.40
2023-01-29T09:05:25.055Z,13.87
2023-01-29T09:07:54.243Z,14.27
2023-01-29T09:10:21.992Z,15.33
2023-01-29T09:12:49.820Z,14.83
2023-01-29T09:15:19.857Z,15.10
2023-01-29T09:17:49.482Z,14.73
2023-01-29T09:20:19.492Z,16.07
2023-01-29T09:22:47.468Z,15.13
2023-01-29T09:25:15.653Z,16.00
2023-01-29T09:27:43.815Z,16.13
2023-01-29T09:30:12.754Z,13.33
2023-01-29T09:32:56.020Z,14.57
2023-01-29T09:35:25.151Z,15.37
2023-01-29T09:37:53.059Z,14.40
2023-01-29T09:40:27.486Z,14.27
2023-01-29T09:43:03.057Z,15.07
2023-01-29T09:45:31.659Z,15.40
2023-01-29T09:48:01.499Z,15.20
2023-01-29T09:50:35.483Z,15.20
2023-01-29T09:53:11.064Z,13.47
2023-01-29T09:55:42.824Z,13.93
2023-01-29T09:58:18.664Z,13.50
2023-01-29T10:00:54.828Z,12.70
2023-01-29T10:03:50.472Z,13.63
2023-01-29T10:06:33.788Z,13.50
2023-01-29T10:09:33.941Z,12.93
2023-01-29T10:12:14.577Z,13.43
2023-01-29T10:14:52.653Z,12.80
2023-01-29T10:17:34.331Z,13.20
2023-01-29T10:20:20.894Z,13.77
2023-01-29T10:23:16.659Z,13.83
2023-01-29T10:25:47.071Z,11.47
2023-01-29T10:28:19.514Z,13.23
2023-01-29T10:30:50.614Z,12.30
2023-01-29T10:33:27.058Z,13.20
2023-01-29T10:35:59.267Z,10.03
2023-01-29T10:38:42.092Z,12.43
2023-01-29T10:41:23.452Z,11.57
2023-01-29T10:44:01.620Z,10.97
2023-01-29T10:46:42.074Z,11.23
2023-01-29T10:49:22.402Z,12.90
2023-01-29T10:52:06.822Z,11.80
2023-01-29T10:54:52.600Z,11.33
2023-01-29T10:57:31.361Z,10.30
2023-01-29T11:00:13.141Z,11.73
2023-01-29T11:02:46.291Z,11.17
2023-01-29T11:05:21.825Z,11.33
2023-01-29T11:07:50.563Z,9.60
2023-01-29T11:10:22.857Z,10.43
2023-01-29T11:12:51.971Z,10.83
2023-01-29T11:15:24.406Z,11.67
2023-01-29T11:18:13.527Z,10.50
2023-01-29T11:20:42.986Z,11.30
2023-01-29T11:23:27.516Z,10.90
2023-01-29T11:25:58.863Z,10.03
2023-01-29T11:28:41.002Z,9.77
2023-01-29T11:31:25.982Z,10.03
2023-01-29T11:34:02.314Z,10.77
2023-01-29T11:36:36.829Z,9.50
2023-01-29T11:39:16.094Z,9.30
2023-01-29T11:41:48.355Z,10.87
2023-01-29T11:44:28.244Z,9.90
2023-01-29T11:46:57.875Z,10.23
2023-01-29T11:49:37.266Z,8.77
2023-01-29T11:52:08.451Z,9.47
2023-01-29T11:54:40.192Z,9.23
2023-01-29T11:57:24.418Z,8.80
2023-01-29T11:59:54.326Z,9.47
2023-01-29T12:02:28.081Z,10.20
2023-01-29T12:04:58.126Z,9.30
2023-01-29T12:07:26.312Z,10.90
2023-01-29T12:09:56.535Z,9.80
2023-01-29T12:12:42.269Z,9.77
2023-01-29T12:15:24.911Z,8.93
2023-01-29T12:18:00.871Z,8.70
2023-01-29T12:20:36.853Z,9.93
2023-01-29T12:23:15.402Z,8.10
2023-01-29T12:25:51.772Z,9.13
2023-01-29T12:28:45.858Z,8.67
2023-01-29T12:31:25.028Z,8.83
2023-01-29T12:33:56.829Z,9.97
2023-01-29T12:36:29.999Z,9.37
2023-01-29T12:38:58.963Z,8.43
2023-01-29T12:41:34.396Z,8.17
2023-01-29T12:44:13.967Z,9.20
2023-01-29T12:46:48.854Z,9.27
2023-01-29T12:49:20.137Z,9.57
2023-01-29T12:51:59.033Z,9.03
2023-01-29T12:54:37.147Z,9.47
2023-01-29T12:57:14.317Z,9.13
2023-01-29T12:59:48.783Z,9.33
2023-01-29T13:02:31.292Z,9.53
2023-01-29T13:05:03.902Z,9.33
2023-01-29T13:07:37.015Z,8.83
2023-01-29T13:10:11.653Z,9.43
2023-01-29T13:12:47.045Z,9.03
2023-01-29T13:15:24.327Z,9.30
2023-01-29T13:17:55.711Z,9.80
2023-01-29T13:20:29.918Z,9.30
2023-01-29T13:23:04.608Z,8.20
2023-01-29T13:25:32.396Z,9.90
2023-01-29T13:28:00.232Z,11.20
2023-01-29T13:30:32.714Z,9.40
2023-01-29T13:33:10.397Z,9.13
2023-01-29T13:35:42.083Z,9.60
2023-01-29T13:38:26.582Z,9.27
2023-01-29T13:40:58.251Z,9.67
2023-01-29T13:43:26.297Z,8.83
2023-01-29T13:45:56.063Z,8.47
2023-01-29T13:48:27.538Z,9.60
2023-01-29T13:50:57.428Z,8.93
2023-01-29T13:53:28.481Z,9.20
2023-01-29T13:55:56.320Z,9.57
2023-01-29T13:58:54.674Z,9.63
2023-01-29T14:01:56.363Z,9.03
2023-01-29T14:04:28.414Z,9.93
2023-01-29T14:06:57.094Z,10.80
2023-01-29T14:10:03.563Z,9.33
2023-01-29T14:12:38.548Z,10.53
2023-01-29T14:15:29.759Z,11.00
2023-01-29T14:18:19.823Z,9.87
2023-01-29T14:21:06.880Z,9.87
2023-01-29T14:23:41.088Z,10.30
2023-01-29T14:26:23.112Z,10.30
2023-01-29T14:29:05.730Z,10.60
2023-01-29T14:31:42.338Z,10.27
2023-01-29T14:34:19.678Z,10.93
2023-01-29T14:36:55.224Z,10.13
2023-01-29T14:39:38.678Z,10.83
2023-01-29T14:42:18.680Z,10.33
2023-01-29T14:45:00.768Z,10.27
2023-01-29T14:47:55.462Z,11.80
2023-01-29T14:50:48.120Z,10.90
2023-01-29T14:53:29.264Z,12.17
2023-01-29T14:56:02.070Z,10.80
2023-01-29T14:58:38.634Z,12.07
2023-01-29T15:01:12.271Z,10.93
2023-01-29T15:03:45.681Z,10.93
2023-01-29T15:06:19.964Z,11.73
2023-01-29T15:08:56.559Z,10.63
2023-01-29T15:11:36.038Z,11.30
2023-01-29T15:14:24.817Z,11.33
2023-01-29T15:17:11.290Z,12.43
2023-01-29T15:19:45.611Z,11.83
2023-01-29T15:22:15.410Z,12.70
2023-01-29T15:24:46.398Z,12.93
2023-01-29T15:27:16.967Z,11.57
2023-01-29T15:29:48.755Z,12.00
2023-01-29T15:32:29.217Z,14.60
2023-01-29T15:34:58.454Z,11.63
2023-01-29T15:37:28.271Z,11.93
2023-01-29T15:39:58.173Z,11.70
2023-01-29T15:42:28.474Z,13.50
2023-01-29T15:44:56.769Z,12.90
2023-01-29T15:47:29.804Z,12.93
2023-01-29T15:49:58.629Z,12.37
2023-01-29T15:52:29.922Z,12.20
2023-01-29T15:55:04.130Z,13.10
2023-01-29T15:57:37.320Z,11.03
2023-01-29T16:00:08.183Z,12.27
2023-01-29T16:02:41.308Z,11.13
2023-01-29T16:05:14.959Z,12.37
2023-01-29T16:07:44.036Z,12.17
2023-01-29T16:10:19.173Z,12.50
2023-01-29T16:12:51.383Z,11.97
2023-01-29T16:15:28.610Z,12.53
2023-01-29T16:17:57.024Z,11.63
2023-01-29T16:20:44.570Z,12.27
2023-01-29T16:23:19.400Z,12.33
2023-01-29T16:25:50.148Z,12.73
2023-01-29T16:28:18.889Z,12.57
2023-01-29T16:30:46.798Z,12.17
2023-01-29T16:33:18.055Z,12.57
2023-01-29T16:35:52.135Z,11.97
2023-01-29T16:38:29.607Z,12.10
2023-01-29T16:41:15.210Z,12.70
2023-01-29T16:43:52.669Z,12.60
2023-01-29T16:46:26.262Z,12.37
2023-01-29T16:48:54.855Z,13.77
2023-01-29T16:51:27.048Z,13.03
2023-01-29T16:54:00.363Z,12.37
2023-01-29T16:56:33.150Z,12.93
2023-01-29T16:59:04.155Z,12.67
2023-01-29T17:01:32.785Z,14.23
2023-01-29T17:04:07.608Z,13.80
2023-01-29T17:06:49.996Z,13.83
2023-01-29T17:09:25.587Z,13.73
2023-01-29T17:11:58.456Z,12.97
2023-01-29T17:14:27.476Z,15.87
2023-01-29T17:16:57.295Z,12.93
2023-01-29T17:19:25.882Z,13.60
2023-01-29T17:21:54.056Z,13.33
2023-01-29T17:24:21.867Z,13.20
2023-01-29T17:26:49.954Z,13.00
2023-01-29T17:29:21.892Z,13.43
2023-01-29T17:31:49.768Z,11.97
2023-01-29T17:34:18.627Z,13.10
2023-01-29T17:36:47.017Z,12.77
2023-01-29T17:39:18.583Z,12.50
2023-01-29T17:41:48.269Z,13.87
2023-01-29T17:44:16.433Z,12.50
2023-01-29T17:46:46.177Z,15.10
2023-01-29T17:49:23.428Z,14.17
2023-01-29T17:51:51.748Z,12.40
2023-01-29T17:54:19.611Z,12.77
2023-01-29T17:56:47.747Z,12.13
2023-01-29T17:59:16.380Z,12.43
2023-01-29T18:01:45.587Z,11.07
2023-01-29T18:04:14.009Z,11.57
2023-01-29T18:06:43.257Z,10.80
2023-01-29T18:09:13.788Z,12.37
2023-01-29T18:11:42.355Z,11.00
2023-01-29T18:14:13.561Z,11.90
2023-01-29T18:16:43.584Z,13.00
2023-01-29T18:19:19.837Z,11.27
2023-01-29T18:21:47.850Z,11.23
2023-01-29T18:24:15.847Z,13.50
2023-01-29T18:26:43.936Z,12.70
2023-01-29T18:29:11.966Z,11.90
2023-01-29T18:31:39.816Z,10.63
2023-01-29T18:34:08.003Z,11.90
2023-01-29T18:36:37.203Z,11.33
2023-01-29T18:39:05.181Z,12.70
2023-01-29T18:41:33.046Z,10.07
2023-01-29T18:44:01.078Z,12.23
2023-01-29T18:46:28.849Z,11.40
2023-01-29T18:48:56.676Z,11.20
2023-01-29T18:51:24.404Z,11.57
2023-01-29T18:53:53.705Z,11.63
2023-01-29T18:56:21.482Z,10.70
2023-01-29T18:58:52.307Z,11.33
2023-01-29T19:01:23.783Z,10.20
2023-01-29T19:03:51.995Z,11.20
2023-01-29T19:06:19.821Z,10.53
2023-01-29T19:08:47.931Z,12.00
2023-01-29T19:11:17.003Z,11.07
2023-01-29T19:13:46.031Z,10.90
2023-01-29T19:16:14.218Z,11.47
2023-01-29T19:18:42.509Z,10.80
2023-01-29T19:21:12.097Z,10.37
2023-01-29T19:23:40.520Z,11.10
2023-01-29T19:26:08.764Z,9.60
2023-01-29T19:28:38.116Z,10.10
2023-01-29T19:31:06.256Z,11.23
2023-01-29T19:33:34.174Z,10.13
2023-01-29T19:36:02.823Z,10.83
2023-01-29T19:38:33.427Z,10.53
2023-01-29T19:41:01.578Z,13.00
2023-01-29T19:43:31.488Z,10.43
2023-01-29T19:46:02.501Z,11.50
2023-01-29T19:48:30.776Z,9.73
2023-01-29T19:51:01.366Z,10.20
2023-01-29T19:53:30.140Z,10.20
2023-01-29T19:55:59.431Z,9.93
2023-01-29T19:58:27.605Z,9.30
2023-01-29T20:00:56.735Z,10.03
2023-01-29T20:03:26.575Z,9.73
2023-01-29T20:05:54.569Z,18.23
2023-01-29T20:08:23.862Z,8.80
2023-01-29T20:10:51.696Z,8.57
2023-01-29T20:13:19.430Z,9.37
2023-01-29T20:15:48.262Z,9.87
2023-01-29T20:18:17.197Z,8.03
2023-01-29T20:20:48.141Z,8.47
2023-01-29T20:23:25.013Z,8.07
2023-01-29T20:26:03.518Z,8.10
2023-01-29T20:28:34.569Z,8.37
2023-01-29T20:31:03.457Z,8.80
2023-01-29T20:33:31.838Z,9.10
2023-01-29T20:36:02.889Z,8.80
2023-01-29T20:38:31.780Z,8.37
2023-01-29T20:41:05.108Z,8.10
2023-01-29T20:43:33.027Z,7.43
2023-01-29T20:46:01.195Z,7.57
2023-01-29T20:48:29.444Z,7.90
2023-01-29T20:50:57.212Z,7.90
2023-01-29T20:53:26.527Z,7.90
2023-01-29T20:55:54.330Z,8.40
2023-01-29T20:58:22.472Z,6.93
2023-01-29T21:00:50.329Z,7.80
2023-01-29T21:03:18.114Z,7.37
2023-01-29T21:05:46.322Z,7.30
2023-01-29T21:08:14.699Z,7.07
2023-01-29T21:10:45.072Z,8.10
2023-01-29T21:13:12.958Z,8.17
2023-01-29T21:15:44.236Z,7.40
2023-01-29T21:18:12.503Z,7.93
2023-01-29T21:20:40.258Z,7.80
2023-01-29T21:23:08.041Z,7.57
2023-01-29T21:25:36.008Z,7.57
2023-01-29T21:28:06.410Z,7.83
2023-01-29T21:30:35.100Z,8.17
2023-01-29T21:33:03.009Z,7.13
2023-01-29T21:35:30.904Z,7.37
2023-01-29T21:37:58.772Z,7.43
2023-01-29T21:40:26.652Z,8.30
2023-01-29T21:43:11.783Z,7.87
2023-01-29T21:45:41.594Z,7.47
2023-01-29T21:48:10.230Z,7.50
2023-01-29T21:50:38.918Z,7.20
2023-01-29T21:53:07.191Z,8.00
2023-01-29T21:55:35.084Z,8.17
2023-01-29T21:58:02.873Z,7.67
2023-01-29T22:00:30.686Z,7.70
2023-01-29T22:02:59.994Z,7.33
2023-01-29T22:05:29.109Z,8.40
2023-01-29T22:07:57.144Z,8.27
2023-01-29T22:10:25.439Z,8.10
2023-01-29T22:12:53.483Z,8.80
2023-01-29T22:15:23.611Z,8.60
2023-01-29T22:17:52.115Z,7.83
2023-01-29T22:20:29.462Z,8.43
2023-01-29T22:22:59.293Z,7.07
2023-01-29T22:25:27.477Z,8.37
2023-01-29T22:27:55.463Z,8.40
2023-01-29T22:30:24.023Z,7.37
2023-01-29T22:32:52.162Z,8.00
2023-01-29T22:35:21.343Z,7.77
2023-01-29T22:37:49.159Z,8.47
2023-01-29T22:40:17.473Z,8.10
2023-01-29T22:42:45.421Z,8.67
2023-01-29T22:45:13.504Z,8.07
2023-01-29T22:47:41.482Z,8.23
2023-01-29T22:50:10.268Z,8.93
2023-01-29T22:52:39.466Z,7.93
2023-01-29T22:55:09.546Z,8.47
2023-01-29T22:57:37.822Z,7.73
2023-01-29T23:00:07.894Z,7.33
2023-01-29T23:02:35.602Z,8.47
2023-01-29T23:05:04.258Z,7.80
2023-01-29T23:07:31.970Z,7.97
2023-01-29T23:10:01.126Z,7.10
2023-01-29T23:12:28.897Z,7.60
2023-01-29T23:14:56.593Z,7.47
2023-01-29T23:17:24.351Z,7.73
2023-01-29T23:19:52.091Z,8.13
2023-01-29T23:22:19.825Z,8.50
2023-01-29T23:24:47.558Z,7.93
2023-01-29T23:27:15.888Z,8.87
2023-01-29T23:29:44.677Z,7.63
2023-01-29T23:32:13.941Z,8.07
2023-01-29T23:34:41.846Z,7.60
2023-01-29T23:37:09.867Z,8.10
2023-01-29T23:39:37.713Z,8.03
2023-01-29T23:42:05.628Z,7.23
2023-01-29T23:44:35.482Z,8.13
2023-01-29T23:47:03.273Z,8.27
2023-01-29T23:49:31.010Z,9.00
2023-01-29T23:51:58.793Z,8.43
2023-01-29T23:54:26.730Z,8.47
2023-01-29T23:56:54.428Z,7.40
2023-01-29T23:59:22.384Z,8.77
